sensor_id;sensor_type;location;lat;lon;timestamp;P1;durP1;ratioP1;P2;durP2;ratioP2
19521;SDS011;9905;52.126;5.596;2022-12-17T00:01:53;34.73;;;21.67;;
19521;SDS011;9905;52.126;5.596;2022-12-17T00:04:37;27.47;;;20.30;;
19521;SDS011;9905;52.126;5.596;2022-12-17T00:07:21;31.87;;;20.43;;
19521;SDS011;9905;52.126;5.596;2022-12-17T00:10:07;31.30;;;20.07;;
19521;SDS011;9905;52.126;5.596;2022-12-17T00:12:51;31.97;;;19.57;;
19521;SDS011;9905;52.126;5.596;2022-12-17T00:15:36;35.63;;;20.70;;
19521;SDS011;9905;52.126;5.596;2022-12-17T00:18:20;29.63;;;20.63;;
19521;SDS011;9905;52.126;5.596;2022-12-17T00:21:04;31.60;;;19.80;;
19521;SDS011;9905;52.126;5.596;2022-12-17T00:23:49;30.83;;;20.93;;
19521;SDS011;9905;52.126;5.596;2022-12-17T00:26:35;28.27;;;20.13;;
19521;SDS011;9905;52.126;5.596;2022-12-17T00:29:19;32.83;;;19.17;;
19521;SDS011;9905;52.126;5.596;2022-12-17T00:32:04;33.47;;;21.30;;
19521;SDS011;9905;52.126;5.596;2022-12-17T00:34:48;36.60;;;20.83;;
19521;SDS011;9905;52.126;5.596;2022-12-17T00:37:32;30.23;;;18.93;;
19521;SDS011;9905;52.126;5.596;2022-12-17T00:40:16;32.93;;;20.13;;
19521;SDS011;9905;52.126;5.596;2022-12-17T00:43:02;31.93;;;20.33;;
19521;SDS011;9905;52.126;5.596;2022-12-17T00:45:47;30.60;;;20.70;;
19521;SDS011;9905;52.126;5.596;2022-12-17T00:48:32;31.00;;;21.07;;
19521;SDS011;9905;52.126;5.596;2022-12-17T00:51:16;32.10;;;20.50;;
19521;SDS011;9905;52.126;5.596;2022-12-17T00:54:00;26.43;;;18.83;;
19521;SDS011;9905;52.126;5.596;2022-12-17T00:56:44;30.83;;;20.63;;
19521;SDS011;9905;52.126;5.596;2022-12-17T00:59:30;30.87;;;19.83;;
19521;SDS011;9905;52.126;5.596;2022-12-17T01:02:14;32.30;;;21.40;;
19521;SDS011;9905;52.126;5.596;2022-12-17T01:04:58;35.67;;;22.03;;
19521;SDS011;9905;52.126;5.596;2022-12-17T01:07:54;29.63;;;20.50;;
19521;SDS011;9905;52.126;5.596;2022-12-17T01:10:38;32.93;;;19.90;;
19521;SDS011;9905;52.126;5.596;2022-12-17T01:13:23;32.00;;;19.90;;
19521;SDS011;9905;52.126;5.596;2022-12-17T01:16:09;31.20;;;20.57;;
19521;SDS011;9905;52.126;5.596;2022-12-17T01:18:55;29.47;;;20.90;;
19521;SDS011;9905;52.126;5.596;2022-12-17T01:21:40;28.03;;;20.13;;
19521;SDS011;9905;52.126;5.596;2022-12-17T01:24:25;36.33;;;20.80;;
19521;SDS011;9905;52.126;5.596;2022-12-17T01:27:10;27.80;;;19.63;;
19521;SDS011;9905;52.126;5.596;2022-12-17T01:29:54;29.90;;;20.83;;
19521;SDS011;9905;52.126;5.596;2022-12-17T01:32:40;33.40;;;20.37;;
19521;SDS011;9905;52.126;5.596;2022-12-17T01:35:24;33.90;;;20.77;;
19521;SDS011;9905;52.126;5.596;2022-12-17T01:38:09;31.93;;;21.27;;
19521;SDS011;9905;52.126;5.596;2022-12-17T01:40:54;32.07;;;20.83;;
19521;SDS011;9905;52.126;5.596;2022-12-17T01:43:38;36.60;;;21.47;;
19521;SDS011;9905;52.126;5.596;2022-12-17T01:46:22;36.97;;;20.50;;
19521;SDS011;9905;52.126;5.596;2022-12-17T01:49:11;33.80;;;21.30;;
19521;SDS011;9905;52.126;5.596;2022-12-17T01:51:56;36.97;;;21.57;;
19521;SDS011;9905;52.126;5.596;2022-12-17T01:54:42;40.00;;;20.97;;
19521;SDS011;9905;52.126;5.596;2022-12-17T01:57:27;32.03;;;19.73;;
19521;SDS011;9905;52.126;5.596;2022-12-17T02:00:12;33.53;;;19.53;;
19521;SDS011;9905;52.126;5.596;2022-12-17T02:02:58;35.60;;;19.27;;
19521;SDS011;9905;52.126;5.596;2022-12-17T02:05:52;32.17;;;20.67;;
19521;SDS011;9905;52.126;5.596;2022-12-17T02:08:50;37.53;;;21.03;;
19521;SDS011;9905;52.126;5.596;2022-12-17T02:11:43;26.63;;;18.30;;
19521;SDS011;9905;52.126;5.596;2022-12-17T02:14:36;32.13;;;20.57;;
19521;SDS011;9905;52.126;5.596;2022-12-17T02:17:27;29.80;;;20.70;;
19521;SDS011;9905;52.126;5.596;2022-12-17T02:20:19;29.57;;;18.83;;
19521;SDS011;9905;52.126;5.596;2022-12-17T02:23:14;36.17;;;20.20;;
19521;SDS011;9905;52.126;5.596;2022-12-17T02:26:08;28.20;;;20.17;;
19521;SDS011;9905;52.126;5.596;2022-12-17T02:28:57;28.83;;;19.53;;
19521;SDS011;9905;52.126;5.596;2022-12-17T02:31:44;35.20;;;20.03;;
19521;SDS011;9905;52.126;5.596;2022-12-17T02:34:30;28.07;;;19.17;;
19521;SDS011;9905;52.126;5.596;2022-12-17T02:37:14;34.90;;;19.73;;
19521;SDS011;9905;52.126;5.596;2022-12-17T02:39:58;31.00;;;19.63;;
19521;SDS011;9905;52.126;5.596;2022-12-17T02:42:43;37.60;;;20.03;;
19521;SDS011;9905;52.126;5.596;2022-12-17T02:45:30;30.30;;;18.73;;
19521;SDS011;9905;52.126;5.596;2022-12-17T02:48:16;37.37;;;19.43;;
19521;SDS011;9905;52.126;5.596;2022-12-17T02:51:01;27.47;;;18.83;;
19521;SDS011;9905;52.126;5.596;2022-12-17T02:53:49;34.87;;;19.63;;
19521;SDS011;9905;52.126;5.596;2022-12-17T02:56:36;29.20;;;20.97;;
19521;SDS011;9905;52.126;5.596;2022-12-17T02:59:20;32.50;;;19.07;;
19521;SDS011;9905;52.126;5.596;2022-12-17T03:02:06;29.83;;;19.17;;
19521;SDS011;9905;52.126;5.596;2022-12-17T03:04:50;25.67;;;18.20;;
19521;SDS011;9905;52.126;5.596;2022-12-17T03:07:34;30.90;;;18.50;;
19521;SDS011;9905;52.126;5.596;2022-12-17T03:10:18;28.83;;;19.20;;
19521;SDS011;9905;52.126;5.596;2022-12-17T03:13:02;29.53;;;19.23;;
19521;SDS011;9905;52.126;5.596;2022-12-17T03:15:46;28.43;;;18.87;;
19521;SDS011;9905;52.126;5.596;2022-12-17T03:18:31;28.03;;;17.90;;
19521;SDS011;9905;52.126;5.596;2022-12-17T03:21:16;32.90;;;20.20;;
19521;SDS011;9905;52.126;5.596;2022-12-17T03:24:00;33.70;;;19.53;;
19521;SDS011;9905;52.126;5.596;2022-12-17T03:26:44;34.00;;;19.70;;
19521;SDS011;9905;52.126;5.596;2022-12-17T03:29:28;31.87;;;18.77;;
19521;SDS011;9905;52.126;5.596;2022-12-17T03:32:12;26.30;;;18.03;;
19521;SDS011;9905;52.126;5.596;2022-12-17T03:34:58;26.23;;;19.10;;
19521;SDS011;9905;52.126;5.596;2022-12-17T03:37:42;32.37;;;19.63;;
19521;SDS011;9905;52.126;5.596;2022-12-17T03:40:26;32.23;;;20.53;;
19521;SDS011;9905;52.126;5.596;2022-12-17T03:43:10;31.63;;;20.63;;
19521;SDS011;9905;52.126;5.596;2022-12-17T03:45:55;26.77;;;18.93;;
19521;SDS011;9905;52.126;5.596;2022-12-17T03:48:39;30.87;;;19.83;;
19521;SDS011;9905;52.126;5.596;2022-12-17T03:51:27;25.37;;;19.50;;
19521;SDS011;9905;52.126;5.596;2022-12-17T03:54:12;25.77;;;18.20;;
19521;SDS011;9905;52.126;5.596;2022-12-17T03:57:01;33.83;;;21.00;;
19521;SDS011;9905;52.126;5.596;2022-12-17T03:59:45;34.07;;;21.60;;
19521;SDS011;9905;52.126;5.596;2022-12-17T04:02:29;26.43;;;18.50;;
19521;SDS011;9905;52.126;5.596;2022-12-17T04:05:13;31.33;;;20.27;;
19521;SDS011;9905;52.126;5.596;2022-12-17T04:07:59;38.00;;;20.37;;
19521;SDS011;9905;52.126;5.596;2022-12-17T04:10:44;34.47;;;20.17;;
19521;SDS011;9905;52.126;5.596;2022-12-17T04:13:28;32.17;;;20.67;;
19521;SDS011;9905;52.126;5.596;2022-12-17T04:16:12;33.73;;;22.30;;
19521;SDS011;9905;52.126;5.596;2022-12-17T04:18:57;30.00;;;20.60;;
19521;SDS011;9905;52.126;5.596;2022-12-17T04:21:41;34.17;;;19.90;;
19521;SDS011;9905;52.126;5.596;2022-12-17T04:24:26;36.37;;;21.50;;
19521;SDS011;9905;52.126;5.596;2022-12-17T04:27:10;36.40;;;21.23;;
19521;SDS011;9905;52.126;5.596;2022-12-17T04:29:55;31.87;;;19.90;;
19521;SDS011;9905;52.126;5.596;2022-12-17T04:32:39;32.47;;;19.03;;
19521;SDS011;9905;52.126;5.596;2022-12-17T04:35:23;36.73;;;20.13;;
19521;SDS011;9905;52.126;5.596;2022-12-17T04:38:07;32.90;;;20.80;;
19521;SDS011;9905;52.126;5.596;2022-12-17T04:40:53;35.17;;;20.43;;
19521;SDS011;9905;52.126;5.596;2022-12-17T04:43:37;31.63;;;19.53;;
19521;SDS011;9905;52.126;5.596;2022-12-17T04:46:21;34.60;;;21.93;;
19521;SDS011;9905;52.126;5.596;2022-12-17T04:49:05;33.73;;;22.27;;
19521;SDS011;9905;52.126;5.596;2022-12-17T04:51:49;34.13;;;20.23;;
19521;SDS011;9905;52.126;5.596;2022-12-17T04:54:33;38.50;;;22.23;;
19521;SDS011;9905;52.126;5.596;2022-12-17T04:57:18;39.13;;;22.33;;
19521;SDS011;9905;52.126;5.596;2022-12-17T05:00:03;33.07;;;21.40;;
19521;SDS011;9905;52.126;5.596;2022-12-17T05:02:48;38.43;;;23.37;;
19521;SDS011;9905;52.126;5.596;2022-12-17T05:05:34;30.70;;;21.40;;
19521;SDS011;9905;52.126;5.596;2022-12-17T05:08:18;37.60;;;22.77;;
19521;SDS011;9905;52.126;5.596;2022-12-17T05:11:03;35.83;;;22.87;;
19521;SDS011;9905;52.126;5.596;2022-12-17T05:13:49;42.70;;;22.00;;
19521;SDS011;9905;52.126;5.596;2022-12-17T05:16:33;39.57;;;24.37;;
19521;SDS011;9905;52.126;5.596;2022-12-17T05:19:17;39.17;;;23.47;;
19521;SDS011;9905;52.126;5.596;2022-12-17T05:22:02;32.83;;;20.10;;
19521;SDS011;9905;52.126;5.596;2022-12-17T05:24:46;38.13;;;22.80;;
19521;SDS011;9905;52.126;5.596;2022-12-17T05:27:30;34.50;;;20.83;;
19521;SDS011;9905;52.126;5.596;2022-12-17T05:30:15;35.83;;;20.40;;
19521;SDS011;9905;52.126;5.596;2022-12-17T05:32:59;41.93;;;21.83;;
19521;SDS011;9905;52.126;5.596;2022-12-17T05:35:45;39.97;;;22.60;;
19521;SDS011;9905;52.126;5.596;2022-12-17T05:38:30;37.17;;;23.03;;
19521;SDS011;9905;52.126;5.596;2022-12-17T05:41:14;36.70;;;22.53;;
19521;SDS011;9905;52.126;5.596;2022-12-17T05:43:58;41.33;;;21.13;;
19521;SDS011;9905;52.126;5.596;2022-12-17T05:46:44;42.07;;;22.77;;
19521;SDS011;9905;52.126;5.596;2022-12-17T05:49:28;30.90;;;21.03;;
19521;SDS011;9905;52.126;5.596;2022-12-17T05:52:12;35.57;;;21.57;;
19521;SDS011;9905;52.126;5.596;2022-12-17T05:54:56;35.13;;;22.53;;
19521;SDS011;9905;52.126;5.596;2022-12-17T05:57:40;43.23;;;22.80;;
19521;SDS011;9905;52.126;5.596;2022-12-17T06:00:24;37.00;;;21.87;;
19521;SDS011;9905;52.126;5.596;2022-12-17T06:03:10;39.03;;;21.50;;
19521;SDS011;9905;52.126;5.596;2022-12-17T06:05:54;35.30;;;22.70;;
19521;SDS011;9905;52.126;5.596;2022-12-17T06:08:39;40.53;;;21.87;;
19521;SDS011;9905;52.126;5.596;2022-12-17T06:11:32;41.40;;;23.90;;
19521;SDS011;9905;52.126;5.596;2022-12-17T06:14:17;37.43;;;21.90;;
19521;SDS011;9905;52.126;5.596;2022-12-17T06:17:03;37.83;;;21.90;;
19521;SDS011;9905;52.126;5.596;2022-12-17T06:19:49;33.63;;;21.33;;
19521;SDS011;9905;52.126;5.596;2022-12-17T06:22:33;32.20;;;19.27;;
19521;SDS011;9905;52.126;5.596;2022-12-17T06:25:18;39.90;;;22.13;;
19521;SDS011;9905;52.126;5.596;2022-12-17T06:28:02;33.70;;;21.83;;
19521;SDS011;9905;52.126;5.596;2022-12-17T06:30:48;36.77;;;21.70;;
19521;SDS011;9905;52.126;5.596;2022-12-17T06:33:33;39.83;;;23.20;;
19521;SDS011;9905;52.126;5.596;2022-12-17T06:36:19;47.97;;;24.53;;
19521;SDS011;9905;52.126;5.596;2022-12-17T06:39:03;35.37;;;22.70;;
19521;SDS011;9905;52.126;5.596;2022-12-17T06:41:48;40.20;;;22.10;;
19521;SDS011;9905;52.126;5.596;2022-12-17T06:44:32;40.80;;;25.03;;
19521;SDS011;9905;52.126;5.596;2022-12-17T06:47:17;41.20;;;21.73;;
19521;SDS011;9905;52.126;5.596;2022-12-17T06:50:01;39.20;;;23.67;;
19521;SDS011;9905;52.126;5.596;2022-12-17T06:52:51;47.40;;;22.60;;
19521;SDS011;9905;52.126;5.596;2022-12-17T06:55:41;42.47;;;24.87;;
19521;SDS011;9905;52.126;5.596;2022-12-17T06:58:25;37.50;;;22.97;;
19521;SDS011;9905;52.126;5.596;2022-12-17T07:01:09;35.70;;;22.07;;
19521;SDS011;9905;52.126;5.596;2022-12-17T07:03:54;41.07;;;23.83;;
19521;SDS011;9905;52.126;5.596;2022-12-17T07:06:38;40.10;;;21.60;;
19521;SDS011;9905;52.126;5.596;2022-12-17T07:09:23;41.63;;;21.83;;
19521;SDS011;9905;52.126;5.596;2022-12-17T07:12:07;37.37;;;23.17;;
19521;SDS011;9905;52.126;5.596;2022-12-17T07:14:51;41.27;;;22.77;;
19521;SDS011;9905;52.126;5.596;2022-12-17T07:17:35;36.60;;;22.73;;
19521;SDS011;9905;52.126;5.596;2022-12-17T07:20:20;39.83;;;22.70;;
19521;SDS011;9905;52.126;5.596;2022-12-17T07:23:04;41.50;;;23.93;;
19521;SDS011;9905;52.126;5.596;2022-12-17T07:25:49;44.20;;;23.00;;
19521;SDS011;9905;52.126;5.596;2022-12-17T07:28:34;40.53;;;23.53;;
19521;SDS011;9905;52.126;5.596;2022-12-17T07:31:18;42.87;;;24.27;;
19521;SDS011;9905;52.126;5.596;2022-12-17T07:34:01;40.77;;;23.50;;
19521;SDS011;9905;52.126;5.596;2022-12-17T07:36:45;37.20;;;22.90;;
19521;SDS011;9905;52.126;5.596;2022-12-17T07:39:30;45.27;;;25.30;;
19521;SDS011;9905;52.126;5.596;2022-12-17T07:42:15;40.23;;;23.87;;
19521;SDS011;9905;52.126;5.596;2022-12-17T07:44:59;38.63;;;22.53;;
19521;SDS011;9905;52.126;5.596;2022-12-17T07:47:49;35.93;;;22.30;;
19521;SDS011;9905;52.126;5.596;2022-12-17T07:50:34;39.57;;;21.50;;
19521;SDS011;9905;52.126;5.596;2022-12-17T07:53:18;34.47;;;23.33;;
19521;SDS011;9905;52.126;5.596;2022-12-17T07:56:11;45.53;;;22.33;;
19521;SDS011;9905;52.126;5.596;2022-12-17T07:58:57;42.83;;;23.63;;
19521;SDS011;9905;52.126;5.596;2022-12-17T08:01:41;38.53;;;23.53;;
19521;SDS011;9905;52.126;5.596;2022-12-17T08:04:25;37.37;;;21.47;;
19521;SDS011;9905;52.126;5.596;2022-12-17T08:07:09;42.73;;;23.93;;
19521;SDS011;9905;52.126;5.596;2022-12-17T08:09:54;38.20;;;22.53;;
19521;SDS011;9905;52.126;5.596;2022-12-17T08:12:38;42.23;;;24.30;;
19521;SDS011;9905;52.126;5.596;2022-12-17T08:15:24;38.30;;;22.43;;
19521;SDS011;9905;52.126;5.596;2022-12-17T08:18:08;38.30;;;23.20;;
19521;SDS011;9905;52.126;5.596;2022-12-17T08:20:53;44.50;;;24.37;;
19521;SDS011;9905;52.126;5.596;2022-12-17T08:23:37;35.83;;;22.50;;
19521;SDS011;9905;52.126;5.596;2022-12-17T08:26:22;44.33;;;23.80;;
19521;SDS011;9905;52.126;5.596;2022-12-17T08:29:06;40.00;;;23.33;;
19521;SDS011;9905;52.126;5.596;2022-12-17T08:31:51;45.87;;;22.73;;
19521;SDS011;9905;52.126;5.596;2022-12-17T08:34:35;43.50;;;24.60;;
19521;SDS011;9905;52.126;5.596;2022-12-17T08:37:19;42.57;;;23.70;;
19521;SDS011;9905;52.126;5.596;2022-12-17T08:40:04;42.63;;;23.80;;
19521;SDS011;9905;52.126;5.596;2022-12-17T08:42:54;37.83;;;24.07;;
19521;SDS011;9905;52.126;5.596;2022-12-17T08:45:39;41.67;;;22.50;;
19521;SDS011;9905;52.126;5.596;2022-12-17T08:48:29;50.40;;;26.03;;
19521;SDS011;9905;52.126;5.596;2022-12-17T08:51:13;56.73;;;25.67;;
19521;SDS011;9905;52.126;5.596;2022-12-17T08:53:57;42.57;;;25.23;;
19521;SDS011;9905;52.126;5.596;2022-12-17T08:56:41;46.10;;;24.47;;
19521;SDS011;9905;52.126;5.596;2022-12-17T08:59:26;47.17;;;24.67;;
19521;SDS011;9905;52.126;5.596;2022-12-17T09:02:10;53.60;;;26.50;;
19521;SDS011;9905;52.126;5.596;2022-12-17T09:04:55;48.77;;;25.10;;
19521;SDS011;9905;52.126;5.596;2022-12-17T09:07:39;48.00;;;27.80;;
19521;SDS011;9905;52.126;5.596;2022-12-17T09:10:23;50.10;;;25.03;;
19521;SDS011;9905;52.126;5.596;2022-12-17T09:13:07;45.17;;;25.43;;
19521;SDS011;9905;52.126;5.596;2022-12-17T09:15:51;49.93;;;26.40;;
19521;SDS011;9905;52.126;5.596;2022-12-17T09:18:36;47.30;;;25.50;;
19521;SDS011;9905;52.126;5.596;2022-12-17T09:21:22;41.90;;;26.57;;
19521;SDS011;9905;52.126;5.596;2022-12-17T09:24:08;52.67;;;26.33;;
19521;SDS011;9905;52.126;5.596;2022-12-17T09:26:52;57.50;;;27.97;;
19521;SDS011;9905;52.126;5.596;2022-12-17T09:29:39;53.77;;;26.70;;
19521;SDS011;9905;52.126;5.596;2022-12-17T09:32:23;49.47;;;25.97;;
19521;SDS011;9905;52.126;5.596;2022-12-17T09:35:07;38.60;;;22.93;;
19521;SDS011;9905;52.126;5.596;2022-12-17T09:37:53;46.33;;;26.50;;
19521;SDS011;9905;52.126;5.596;2022-12-17T09:40:38;47.77;;;24.73;;
19521;SDS011;9905;52.126;5.596;2022-12-17T09:43:39;46.87;;;25.13;;
19521;SDS011;9905;52.126;5.596;2022-12-17T09:46:32;53.77;;;27.17;;
19521;SDS011;9905;52.126;5.596;2022-12-17T09:49:23;47.63;;;25.67;;
19521;SDS011;9905;52.126;5.596;2022-12-17T09:52:15;53.63;;;26.77;;
19521;SDS011;9905;52.126;5.596;2022-12-17T09:55:13;51.03;;;25.57;;
19521;SDS011;9905;52.126;5.596;2022-12-17T09:58:00;58.17;;;28.30;;
19521;SDS011;9905;52.126;5.596;2022-12-17T10:00:45;57.63;;;26.03;;
19521;SDS011;9905;52.126;5.596;2022-12-17T10:03:31;47.63;;;26.67;;
19521;SDS011;9905;52.126;5.596;2022-12-17T10:06:19;55.07;;;27.37;;
19521;SDS011;9905;52.126;5.596;2022-12-17T10:09:08;47.17;;;25.43;;
19521;SDS011;9905;52.126;5.596;2022-12-17T10:11:56;58.33;;;28.47;;
19521;SDS011;9905;52.126;5.596;2022-12-17T10:14:56;52.37;;;27.70;;
19521;SDS011;9905;52.126;5.596;2022-12-17T10:17:40;46.33;;;26.10;;
19521;SDS011;9905;52.126;5.596;2022-12-17T10:20:25;51.87;;;25.77;;
19521;SDS011;9905;52.126;5.596;2022-12-17T10:23:21;46.70;;;26.20;;
19521;SDS011;9905;52.126;5.596;2022-12-17T10:26:06;55.57;;;26.53;;
19521;SDS011;9905;52.126;5.596;2022-12-17T10:29:00;51.23;;;26.13;;
19521;SDS011;9905;52.126;5.596;2022-12-17T10:31:47;47.53;;;27.03;;
19521;SDS011;9905;52.126;5.596;2022-12-17T10:34:34;45.43;;;25.23;;
19521;SDS011;9905;52.126;5.596;2022-12-17T10:37:19;56.80;;;28.77;;
19521;SDS011;9905;52.126;5.596;2022-12-17T10:40:09;50.20;;;25.37;;
19521;SDS011;9905;52.126;5.596;2022-12-17T10:43:01;46.77;;;25.43;;
19521;SDS011;9905;52.126;5.596;2022-12-17T10:45:52;39.73;;;25.33;;
19521;SDS011;9905;52.126;5.596;2022-12-17T10:48:39;44.63;;;25.80;;
19521;SDS011;9905;52.126;5.596;2022-12-17T10:51:24;52.53;;;26.87;;
19521;SDS011;9905;52.126;5.596;2022-12-17T10:54:18;48.53;;;26.07;;
19521;SDS011;9905;52.126;5.596;2022-12-17T10:57:06;52.00;;;24.60;;
19521;SDS011;9905;52.126;5.596;2022-12-17T11:00:06;41.20;;;25.17;;
19521;SDS011;9905;52.126;5.596;2022-12-17T11:03:04;51.57;;;27.20;;
19521;SDS011;9905;52.126;5.596;2022-12-17T11:05:48;44.17;;;24.47;;
19521;SDS011;9905;52.126;5.596;2022-12-17T11:08:37;53.97;;;25.23;;
19521;SDS011;9905;52.126;5.596;2022-12-17T11:11:22;56.20;;;25.67;;
19521;SDS011;9905;52.126;5.596;2022-12-17T11:14:08;44.23;;;24.27;;
19521;SDS011;9905;52.126;5.596;2022-12-17T11:16:55;48.60;;;23.43;;
19521;SDS011;9905;52.126;5.596;2022-12-17T11:19:47;42.53;;;24.43;;
19521;SDS011;9905;52.126;5.596;2022-12-17T11:22:36;51.50;;;25.00;;
19521;SDS011;9905;52.126;5.596;2022-12-17T11:25:27;46.07;;;22.73;;
19521;SDS011;9905;52.126;5.596;2022-12-17T11:28:18;44.83;;;25.00;;
19521;SDS011;9905;52.126;5.596;2022-12-17T11:31:10;40.20;;;22.67;;
19521;SDS011;9905;52.126;5.596;2022-12-17T11:34:10;44.60;;;23.60;;
19521;SDS011;9905;52.126;5.596;2022-12-17T11:37:03;53.80;;;23.67;;
19521;SDS011;9905;52.126;5.596;2022-12-17T11:39:56;44.40;;;22.50;;
19521;SDS011;9905;52.126;5.596;2022-12-17T11:42:48;49.83;;;24.43;;
19521;SDS011;9905;52.126;5.596;2022-12-17T11:45:50;38.90;;;23.13;;
19521;SDS011;9905;52.126;5.596;2022-12-17T11:48:44;40.67;;;22.43;;
19521;SDS011;9905;52.126;5.596;2022-12-17T11:51:36;46.50;;;22.63;;
19521;SDS011;9905;52.126;5.596;2022-12-17T11:54:27;50.77;;;23.03;;
19521;SDS011;9905;52.126;5.596;2022-12-17T11:57:19;45.93;;;26.30;;
19521;SDS011;9905;52.126;5.596;2022-12-17T12:00:12;46.27;;;22.73;;
19521;SDS011;9905;52.126;5.596;2022-12-17T12:03:03;43.37;;;22.50;;
19521;SDS011;9905;52.126;5.596;2022-12-17T12:06:12;44.40;;;25.60;;
19521;SDS011;9905;52.126;5.596;2022-12-17T12:09:06;42.27;;;23.10;;
19521;SDS011;9905;52.126;5.596;2022-12-17T12:11:58;40.73;;;22.70;;
19521;SDS011;9905;52.126;5.596;2022-12-17T12:14:50;45.63;;;23.67;;
19521;SDS011;9905;52.126;5.596;2022-12-17T12:17:43;43.43;;;22.43;;
19521;SDS011;9905;52.126;5.596;2022-12-17T12:20:34;43.80;;;21.30;;
19521;SDS011;9905;52.126;5.596;2022-12-17T12:23:29;41.50;;;23.47;;
19521;SDS011;9905;52.126;5.596;2022-12-17T12:26:21;47.43;;;23.97;;
19521;SDS011;9905;52.126;5.596;2022-12-17T12:29:13;37.03;;;22.47;;
19521;SDS011;9905;52.126;5.596;2022-12-17T12:32:09;42.93;;;20.67;;
19521;SDS011;9905;52.126;5.596;2022-12-17T12:34:58;39.03;;;22.37;;
19521;SDS011;9905;52.126;5.596;2022-12-17T12:37:45;36.93;;;21.60;;
19521;SDS011;9905;52.126;5.596;2022-12-17T12:40:31;48.90;;;21.97;;
19521;SDS011;9905;52.126;5.596;2022-12-17T12:43:22;54.07;;;22.73;;
19521;SDS011;9905;52.126;5.596;2022-12-17T12:46:13;45.20;;;22.50;;
19521;SDS011;9905;52.126;5.596;2022-12-17T12:49:03;49.17;;;23.37;;
19521;SDS011;9905;52.126;5.596;2022-12-17T12:51:55;46.27;;;24.40;;
19521;SDS011;9905;52.126;5.596;2022-12-17T12:54:49;48.40;;;24.93;;
19521;SDS011;9905;52.126;5.596;2022-12-17T12:57:35;47.50;;;23.80;;
19521;SDS011;9905;52.126;5.596;2022-12-17T13:00:26;46.20;;;22.27;;
19521;SDS011;9905;52.126;5.596;2022-12-17T13:03:16;45.47;;;22.73;;
19521;SDS011;9905;52.126;5.596;2022-12-17T13:06:06;49.30;;;22.77;;
19521;SDS011;9905;52.126;5.596;2022-12-17T13:08:33;43.83;;;24.10;;
19521;SDS011;9905;52.126;5.596;2022-12-17T13:11:08;49.00;;;22.43;;
19521;SDS011;9905;52.126;5.596;2022-12-17T13:13:38;49.57;;;24.37;;
19521;SDS011;9905;52.126;5.596;2022-12-17T13:16:23;45.40;;;22.93;;
19521;SDS011;9905;52.126;5.596;2022-12-17T13:19:02;47.80;;;23.60;;
19521;SDS011;9905;52.126;5.596;2022-12-17T13:21:42;47.97;;;22.93;;
19521;SDS011;9905;52.126;5.596;2022-12-17T13:24:09;44.13;;;22.53;;
19521;SDS011;9905;52.126;5.596;2022-12-17T13:26:43;46.07;;;21.70;;
19521;SDS011;9905;52.126;5.596;2022-12-17T13:29:11;51.73;;;22.60;;
19521;SDS011;9905;52.126;5.596;2022-12-17T13:31:49;45.03;;;22.10;;
19521;SDS011;9905;52.126;5.596;2022-12-17T13:34:28;40.53;;;24.17;;
19521;SDS011;9905;52.126;5.596;2022-12-17T13:37:05;46.63;;;22.80;;
19521;SDS011;9905;52.126;5.596;2022-12-17T13:39:39;46.97;;;22.20;;
19521;SDS011;9905;52.126;5.596;2022-12-17T13:42:15;49.40;;;23.50;;
19521;SDS011;9905;52.126;5.596;2022-12-17T13:44:44;47.17;;;21.00;;
19521;SDS011;9905;52.126;5.596;2022-12-17T13:47:17;42.80;;;20.57;;
19521;SDS011;9905;52.126;5.596;2022-12-17T13:49:50;42.40;;;23.20;;
19521;SDS011;9905;52.126;5.596;2022-12-17T13:52:18;44.40;;;24.13;;
19521;SDS011;9905;52.126;5.596;2022-12-17T13:54:46;35.90;;;21.60;;
19521;SDS011;9905;52.126;5.596;2022-12-17T13:57:13;43.67;;;23.43;;
19521;SDS011;9905;52.126;5.596;2022-12-17T13:59:47;45.80;;;23.70;;
19521;SDS011;9905;52.126;5.596;2022-12-17T14:02:22;32.87;;;19.43;;
19521;SDS011;9905;52.126;5.596;2022-12-17T14:04:52;44.33;;;21.67;;
19521;SDS011;9905;52.126;5.596;2022-12-17T14:07:19;40.03;;;21.33;;
19521;SDS011;9905;52.126;5.596;2022-12-17T14:09:47;40.03;;;22.10;;
19521;SDS011;9905;52.126;5.596;2022-12-17T14:12:14;46.83;;;21.63;;
19521;SDS011;9905;52.126;5.596;2022-12-17T14:14:48;46.37;;;21.93;;
19521;SDS011;9905;52.126;5.596;2022-12-17T14:17:20;37.43;;;21.73;;
19521;SDS011;9905;52.126;5.596;2022-12-17T14:19:51;50.00;;;24.33;;
19521;SDS011;9905;52.126;5.596;2022-12-17T14:22:23;49.93;;;23.67;;
19521;SDS011;9905;52.126;5.596;2022-12-17T14:24:57;44.27;;;23.30;;
19521;SDS011;9905;52.126;5.596;2022-12-17T14:27:25;48.13;;;23.30;;
19521;SDS011;9905;52.126;5.596;2022-12-17T14:29:56;43.70;;;22.80;;
19521;SDS011;9905;52.126;5.596;2022-12-17T14:32:24;44.13;;;23.47;;
19521;SDS011;9905;52.126;5.596;2022-12-17T14:34:56;43.17;;;23.43;;
19521;SDS011;9905;52.126;5.596;2022-12-17T14:37:25;50.03;;;22.20;;
19521;SDS011;9905;52.126;5.596;2022-12-17T14:39:54;52.43;;;22.50;;
19521;SDS011;9905;52.126;5.596;2022-12-17T14:42:25;42.70;;;21.90;;
19521;SDS011;9905;52.126;5.596;2022-12-17T14:44:54;47.87;;;23.00;;
19521;SDS011;9905;52.126;5.596;2022-12-17T14:47:24;54.17;;;22.93;;
19521;SDS011;9905;52.126;5.596;2022-12-17T14:49:58;45.97;;;21.97;;
19521;SDS011;9905;52.126;5.596;2022-12-17T14:52:33;39.83;;;21.90;;
19521;SDS011;9905;52.126;5.596;2022-12-17T14:55:21;41.03;;;21.10;;
19521;SDS011;9905;52.126;5.596;2022-12-17T14:58:05;42.67;;;23.13;;
19521;SDS011;9905;52.126;5.596;2022-12-17T15:00:43;41.67;;;21.50;;
19521;SDS011;9905;52.126;5.596;2022-12-17T15:03:14;35.50;;;20.60;;
19521;SDS011;9905;52.126;5.596;2022-12-17T15:05:50;37.17;;;21.13;;
19521;SDS011;9905;52.126;5.596;2022-12-17T15:08:18;36.57;;;21.90;;
19521;SDS011;9905;52.126;5.596;2022-12-17T15:10:46;46.77;;;23.57;;
19521;SDS011;9905;52.126;5.596;2022-12-17T15:13:13;46.30;;;22.80;;
19521;SDS011;9905;52.126;5.596;2022-12-17T15:15:40;40.47;;;21.27;;
19521;SDS011;9905;52.126;5.596;2022-12-17T15:18:06;51.63;;;23.53;;
19521;SDS011;9905;52.126;5.596;2022-12-17T15:20:33;47.20;;;21.80;;
19521;SDS011;9905;52.126;5.596;2022-12-17T15:23:02;45.13;;;22.53;;
19521;SDS011;9905;52.126;5.596;2022-12-17T15:25:28;41.37;;;23.03;;
19521;SDS011;9905;52.126;5.596;2022-12-17T15:27:55;46.87;;;23.80;;
19521;SDS011;9905;52.126;5.596;2022-12-17T15:30:22;42.73;;;20.60;;
19521;SDS011;9905;52.126;5.596;2022-12-17T15:32:49;46.70;;;22.90;;
19521;SDS011;9905;52.126;5.596;2022-12-17T15:35:15;47.10;;;22.77;;
19521;SDS011;9905;52.126;5.596;2022-12-17T15:37:42;40.37;;;21.93;;
19521;SDS011;9905;52.126;5.596;2022-12-17T15:40:11;40.77;;;21.47;;
19521;SDS011;9905;52.126;5.596;2022-12-17T15:42:38;37.87;;;21.43;;
19521;SDS011;9905;52.126;5.596;2022-12-17T15:45:22;44.67;;;23.27;;
19521;SDS011;9905;52.126;5.596;2022-12-17T15:47:49;38.27;;;24.17;;
19521;SDS011;9905;52.126;5.596;2022-12-17T15:50:15;47.00;;;22.43;;
19521;SDS011;9905;52.126;5.596;2022-12-17T15:52:42;41.90;;;23.47;;
19521;SDS011;9905;52.126;5.596;2022-12-17T15:55:11;48.17;;;23.80;;
19521;SDS011;9905;52.126;5.596;2022-12-17T15:57:39;37.90;;;20.37;;
19521;SDS011;9905;52.126;5.596;2022-12-17T16:00:06;37.67;;;20.50;;
19521;SDS011;9905;52.126;5.596;2022-12-17T16:02:34;36.47;;;22.63;;
19521;SDS011;9905;52.126;5.596;2022-12-17T16:05:01;43.97;;;24.17;;
19521;SDS011;9905;52.126;5.596;2022-12-17T16:07:28;41.27;;;22.03;;
19521;SDS011;9905;52.126;5.596;2022-12-17T16:09:55;42.57;;;22.20;;